sensor_id;sensor_type;location;lat;lon;timestamp;P1;durP1;ratioP1;P2;durP2;ratioP2
76310;SDS011;65120;59.304;18.294;2023-03-20T00:00:16;0.65;;;0.45;;
76310;SDS011;65120;59.304;18.294;2023-03-20T00:02:50;1.23;;;0.50;;
76310;SDS011;65120;59.304;18.294;2023-03-20T00:05:18;0.80;;;0.40;;
76310;SDS011;65120;59.304;18.294;2023-03-20T00:07:46;1.27;;;0.30;;
76310;SDS011;65120;59.304;18.294;2023-03-20T00:10:16;1.65;;;0.50;;
76310;SDS011;65120;59.304;18.294;2023-03-20T00:12:45;1.45;;;0.50;;
76310;SDS011;65120;59.304;18.294;2023-03-20T00:15:21;1.20;;;0.50;;
76310;SDS011;65120;59.304;18.294;2023-03-20T00:17:53;1.02;;;0.50;;
76310;SDS011;65120;59.304;18.294;2023-03-20T00:20:20;1.17;;;0.40;;
76310;SDS011;65120;59.304;18.294;2023-03-20T00:22:47;1.10;;;0.55;;
76310;SDS011;65120;59.304;18.294;2023-03-20T00:25:15;2.65;;;0.40;;
76310;SDS011;65120;59.304;18.294;2023-03-20T00:27:45;1.40;;;0.60;;
76310;SDS011;65120;59.304;18.294;2023-03-20T00:30:17;1.20;;;0.50;;
76310;SDS011;65120;59.304;18.294;2023-03-20T00:32:50;1.45;;;0.50;;
76310;SDS011;65120;59.304;18.294;2023-03-20T00:35:19;1.52;;;0.90;;
76310;SDS011;65120;59.304;18.294;2023-03-20T00:37:48;2.90;;;0.50;;
76310;SDS011;65120;59.304;18.294;2023-03-20T00:40:16;3.53;;;0.90;;
76310;SDS011;65120;59.304;18.294;2023-03-20T00:42:44;2.95;;;0.50;;
76310;SDS011;65120;59.304;18.294;2023-03-20T00:45:14;2.25;;;0.68;;
76310;SDS011;65120;59.304;18.294;2023-03-20T00:47:44;2.97;;;0.98;;
76310;SDS011;65120;59.304;18.294;2023-03-20T00:50:16;0.93;;;0.55;;
76310;SDS011;65120;59.304;18.294;2023-03-20T00:52:46;2.47;;;0.65;;
76310;SDS011;65120;59.304;18.294;2023-03-20T00:55:13;2.65;;;0.88;;
76310;SDS011;65120;59.304;18.294;2023-03-20T00:57:45;3.65;;;1.13;;
76310;SDS011;65120;59.304;18.294;2023-03-20T01:00:25;2.63;;;0.73;;
76310;SDS011;65120;59.304;18.294;2023-03-20T01:03:00;1.98;;;0.57;;
76310;SDS011;65120;59.304;18.294;2023-03-20T01:05:31;2.85;;;0.80;;
76310;SDS011;65120;59.304;18.294;2023-03-20T01:07:58;1.27;;;0.65;;
76310;SDS011;65120;59.304;18.294;2023-03-20T01:10:26;2.05;;;0.85;;
76310;SDS011;65120;59.304;18.294;2023-03-20T01:13:00;3.17;;;0.90;;
76310;SDS011;65120;59.304;18.294;2023-03-20T01:15:29;2.17;;;1.08;;
76310;SDS011;65120;59.304;18.294;2023-03-20T01:17:58;3.00;;;0.88;;
76310;SDS011;65120;59.304;18.294;2023-03-20T01:20:25;1.10;;;0.57;;
76310;SDS011;65120;59.304;18.294;2023-03-20T01:22:53;1.50;;;0.73;;
76310;SDS011;65120;59.304;18.294;2023-03-20T01:25:21;2.92;;;0.88;;
76310;SDS011;65120;59.304;18.294;2023-03-20T01:27:49;0.88;;;0.60;;
76310;SDS011;65120;59.304;18.294;2023-03-20T01:30:20;1.10;;;0.60;;
76310;SDS011;65120;59.304;18.294;2023-03-20T01:32:49;3.95;;;0.70;;
76310;SDS011;65120;59.304;18.294;2023-03-20T01:35:17;5.20;;;0.60;;
76310;SDS011;65120;59.304;18.294;2023-03-20T01:37:45;3.33;;;0.60;;
76310;SDS011;65120;59.304;18.294;2023-03-20T01:40:20;4.88;;;0.75;;
76310;SDS011;65120;59.304;18.294;2023-03-20T01:42:56;3.08;;;0.73;;
76310;SDS011;65120;59.304;18.294;2023-03-20T01:45:25;2.83;;;0.80;;
76310;SDS011;65120;59.304;18.294;2023-03-20T01:47:56;1.23;;;0.90;;
76310;SDS011;65120;59.304;18.294;2023-03-20T01:50:25;0.70;;;0.57;;
76310;SDS011;65120;59.304;18.294;2023-03-20T01:52:56;1.85;;;0.50;;
76310;SDS011;65120;59.304;18.294;2023-03-20T01:55:33;1.75;;;0.68;;
76310;SDS011;65120;59.304;18.294;2023-03-20T01:58:02;1.15;;;0.57;;
76310;SDS011;65120;59.304;18.294;2023-03-20T02:00:34;1.67;;;0.70;;
76310;SDS011;65120;59.304;18.294;2023-03-20T02:03:02;1.27;;;0.70;;
76310;SDS011;65120;59.304;18.294;2023-03-20T02:05:31;1.45;;;0.73;;
76310;SDS011;65120;59.304;18.294;2023-03-20T02:08:02;4.15;;;0.70;;
76310;SDS011;65120;59.304;18.294;2023-03-20T02:10:35;0.93;;;0.52;;
76310;SDS011;65120;59.304;18.294;2023-03-20T02:13:03;1.00;;;0.52;;
76310;SDS011;65120;59.304;18.294;2023-03-20T02:15:30;5.28;;;0.77;;
76310;SDS011;65120;59.304;18.294;2023-03-20T02:17:59;1.35;;;0.65;;
76310;SDS011;65120;59.304;18.294;2023-03-20T02:20:30;1.17;;;0.50;;
76310;SDS011;65120;59.304;18.294;2023-03-20T02:23:34;3.55;;;0.70;;
76310;SDS011;65120;59.304;18.294;2023-03-20T02:26:24;2.35;;;0.40;;
76310;SDS011;65120;59.304;18.294;2023-03-20T02:35:21;3.83;;;1.10;;
76310;SDS011;65120;59.304;18.294;2023-03-20T02:38:07;1.20;;;0.60;;
76310;SDS011;65120;59.304;18.294;2023-03-20T02:40:45;1.15;;;0.50;;
76310;SDS011;65120;59.304;18.294;2023-03-20T02:45:48;3.25;;;0.88;;
76310;SDS011;65120;59.304;18.294;2023-03-20T02:48:23;2.90;;;0.60;;
76310;SDS011;65120;59.304;18.294;2023-03-20T02:51:00;2.03;;;0.65;;
76310;SDS011;65120;59.304;18.294;2023-03-20T02:53:33;2.85;;;0.60;;
76310;SDS011;65120;59.304;18.294;2023-03-20T02:56:10;3.38;;;0.55;;
76310;SDS011;65120;59.304;18.294;2023-03-20T02:58:43;2.20;;;0.82;;
76310;SDS011;65120;59.304;18.294;2023-03-20T03:01:16;1.60;;;0.75;;
76310;SDS011;65120;59.304;18.294;2023-03-20T03:03:49;6.78;;;0.57;;
76310;SDS011;65120;59.304;18.294;2023-03-20T03:06:22;1.27;;;0.50;;
76310;SDS011;65120;59.304;18.294;2023-03-20T03:08:56;1.08;;;0.60;;
76310;SDS011;65120;59.304;18.294;2023-03-20T03:11:26;3.45;;;0.73;;
76310;SDS011;65120;59.304;18.294;2023-03-20T03:13:54;5.85;;;1.10;;
76310;SDS011;65120;59.304;18.294;2023-03-20T03:16:23;4.15;;;0.60;;
76310;SDS011;65120;59.304;18.294;2023-03-20T03:19:01;2.85;;;0.70;;
76310;SDS011;65120;59.304;18.294;2023-03-20T03:21:32;1.35;;;0.77;;
76310;SDS011;65120;59.304;18.294;2023-03-20T03:24:04;4.35;;;0.93;;
76310;SDS011;65120;59.304;18.294;2023-03-20T03:26:33;3.40;;;1.50;;
76310;SDS011;65120;59.304;18.294;2023-03-20T03:29:05;2.45;;;0.85;;
76310;SDS011;65120;59.304;18.294;2023-03-20T03:31:39;2.15;;;1.08;;
76310;SDS011;65120;59.304;18.294;2023-03-20T03:34:07;4.35;;;1.02;;
76310;SDS011;65120;59.304;18.294;2023-03-20T03:36:40;2.47;;;1.15;;
76310;SDS011;65120;59.304;18.294;2023-03-20T03:39:19;2.33;;;1.40;;
76310;SDS011;65120;59.304;18.294;2023-03-20T03:41:56;2.08;;;1.05;;
76310;SDS011;65120;59.304;18.294;2023-03-20T03:44:30;4.95;;;1.15;;
76310;SDS011;65120;59.304;18.294;2023-03-20T03:47:04;6.30;;;1.10;;
76310;SDS011;65120;59.304;18.294;2023-03-20T03:49:34;2.45;;;1.02;;
76310;SDS011;65120;59.304;18.294;2023-03-20T03:52:05;4.30;;;1.35;;
76310;SDS011;65120;59.304;18.294;2023-03-20T03:54:38;2.85;;;1.50;;
76310;SDS011;65120;59.304;18.294;2023-03-20T03:57:08;4.25;;;1.17;;
76310;SDS011;65120;59.304;18.294;2023-03-20T03:59:38;2.53;;;1.17;;
76310;SDS011;65120;59.304;18.294;2023-03-20T04:02:08;4.80;;;1.17;;
76310;SDS011;65120;59.304;18.294;2023-03-20T04:04:37;4.20;;;1.60;;
76310;SDS011;65120;59.304;18.294;2023-03-20T04:07:08;6.22;;;1.83;;
76310;SDS011;65120;59.304;18.294;2023-03-20T04:09:37;4.43;;;1.30;;
76310;SDS011;65120;59.304;18.294;2023-03-20T04:12:04;4.15;;;1.02;;
76310;SDS011;65120;59.304;18.294;2023-03-20T04:14:31;1.60;;;0.80;;
76310;SDS011;65120;59.304;18.294;2023-03-20T04:16:58;2.05;;;0.98;;
76310;SDS011;65120;59.304;18.294;2023-03-20T04:19:25;1.67;;;1.08;;
76310;SDS011;65120;59.304;18.294;2023-03-20T04:21:52;3.28;;;0.80;;
76310;SDS011;65120;59.304;18.294;2023-03-20T04:24:20;2.15;;;0.60;;
76310;SDS011;65120;59.304;18.294;2023-03-20T04:26:48;1.45;;;0.50;;
76310;SDS011;65120;59.304;18.294;2023-03-20T04:29:15;0.90;;;0.40;;
76310;SDS011;65120;59.304;18.294;2023-03-20T04:31:42;2.22;;;0.60;;
76310;SDS011;65120;59.304;18.294;2023-03-20T04:34:09;0.70;;;0.43;;
76310;SDS011;65120;59.304;18.294;2023-03-20T04:36:36;0.50;;;0.38;;
76310;SDS011;65120;59.304;18.294;2023-03-20T04:39:03;0.90;;;0.40;;
76310;SDS011;65120;59.304;18.294;2023-03-20T04:41:30;0.75;;;0.50;;
76310;SDS011;65120;59.304;18.294;2023-03-20T04:43:58;0.52;;;0.38;;
76310;SDS011;65120;59.304;18.294;2023-03-20T04:46:25;2.28;;;0.60;;
76310;SDS011;65120;59.304;18.294;2023-03-20T04:48:52;0.82;;;0.40;;
76310;SDS011;65120;59.304;18.294;2023-03-20T04:51:18;1.08;;;0.40;;
76310;SDS011;65120;59.304;18.294;2023-03-20T04:53:45;0.80;;;0.40;;
76310;SDS011;65120;59.304;18.294;2023-03-20T04:56:13;0.70;;;0.40;;
76310;SDS011;65120;59.304;18.294;2023-03-20T04:58:39;1.42;;;0.30;;
76310;SDS011;65120;59.304;18.294;2023-03-20T05:01:08;0.70;;;0.40;;
76310;SDS011;65120;59.304;18.294;2023-03-20T05:03:35;0.57;;;0.40;;
76310;SDS011;65120;59.304;18.294;2023-03-20T05:06:03;0.40;;;0.32;;
76310;SDS011;65120;59.304;18.294;2023-03-20T05:08:30;0.35;;;0.30;;
76310;SDS011;65120;59.304;18.294;2023-03-20T05:10:57;0.50;;;0.40;;
76310;SDS011;65120;59.304;18.294;2023-03-20T05:13:24;0.35;;;0.30;;
76310;SDS011;65120;59.304;18.294;2023-03-20T05:15:51;0.85;;;0.45;;
76310;SDS011;65120;59.304;18.294;2023-03-20T05:18:19;0.43;;;0.30;;
76310;SDS011;65120;59.304;18.294;2023-03-20T05:20:48;0.50;;;0.30;;
76310;SDS011;65120;59.304;18.294;2023-03-20T05:23:15;0.70;;;0.38;;
76310;SDS011;65120;59.304;18.294;2023-03-20T05:25:42;0.73;;;0.43;;
76310;SDS011;65120;59.304;18.294;2023-03-20T05:28:10;0.50;;;0.30;;
76310;SDS011;65120;59.304;18.294;2023-03-20T05:30:36;1.45;;;0.63;;
76310;SDS011;65120;59.304;18.294;2023-03-20T05:33:03;0.60;;;0.50;;
76310;SDS011;65120;59.304;18.294;2023-03-20T05:35:31;0.70;;;0.40;;
76310;SDS011;65120;59.304;18.294;2023-03-20T05:37:58;0.70;;;0.40;;
76310;SDS011;65120;59.304;18.294;2023-03-20T05:40:25;0.50;;;0.40;;
76310;SDS011;65120;59.304;18.294;2023-03-20T05:42:52;0.60;;;0.40;;
76310;SDS011;65120;59.304;18.294;2023-03-20T05:45:19;0.88;;;0.40;;
76310;SDS011;65120;59.304;18.294;2023-03-20T05:47:46;0.80;;;0.43;;
76310;SDS011;65120;59.304;18.294;2023-03-20T05:50:12;1.40;;;0.40;;
76310;SDS011;65120;59.304;18.294;2023-03-20T05:52:41;1.40;;;0.50;;
76310;SDS011;65120;59.304;18.294;2023-03-20T05:55:08;2.22;;;0.95;;
76310;SDS011;65120;59.304;18.294;2023-03-20T05:57:35;2.15;;;0.80;;
76310;SDS011;65120;59.304;18.294;2023-03-20T06:00:02;1.00;;;0.60;;
76310;SDS011;65120;59.304;18.294;2023-03-20T06:02:29;1.88;;;1.00;;
76310;SDS011;65120;59.304;18.294;2023-03-20T06:04:56;1.65;;;0.70;;
76310;SDS011;65120;59.304;18.294;2023-03-20T06:07:23;0.95;;;0.60;;
76310;SDS011;65120;59.304;18.294;2023-03-20T06:09:51;4.30;;;0.75;;
76310;SDS011;65120;59.304;18.294;2023-03-20T06:12:18;1.80;;;0.88;;
76310;SDS011;65120;59.304;18.294;2023-03-20T06:14:45;2.17;;;0.70;;
76310;SDS011;65120;59.304;18.294;2023-03-20T06:17:12;2.28;;;1.05;;
76310;SDS011;65120;59.304;18.294;2023-03-20T06:19:39;2.95;;;1.20;;
76310;SDS011;65120;59.304;18.294;2023-03-20T06:22:06;2.55;;;1.30;;
76310;SDS011;65120;59.304;18.294;2023-03-20T06:24:33;4.10;;;1.08;;
76310;SDS011;65120;59.304;18.294;2023-03-20T06:27:01;4.30;;;1.27;;
76310;SDS011;65120;59.304;18.294;2023-03-20T06:29:28;4.30;;;2.03;;
76310;SDS011;65120;59.304;18.294;2023-03-20T06:31:55;5.25;;;2.53;;
76310;SDS011;65120;59.304;18.294;2023-03-20T06:34:22;4.70;;;2.55;;
76310;SDS011;65120;59.304;18.294;2023-03-20T06:36:48;5.95;;;2.67;;
76310;SDS011;65120;59.304;18.294;2023-03-20T06:39:15;8.35;;;2.90;;
76310;SDS011;65120;59.304;18.294;2023-03-20T06:41:42;5.25;;;2.90;;
76310;SDS011;65120;59.304;18.294;2023-03-20T06:44:11;5.00;;;2.45;;
76310;SDS011;65120;59.304;18.294;2023-03-20T06:46:38;4.68;;;1.98;;
76310;SDS011;65120;59.304;18.294;2023-03-20T06:49:04;5.30;;;2.65;;
76310;SDS011;65120;59.304;18.294;2023-03-20T06:51:31;8.55;;;3.15;;
76310;SDS011;65120;59.304;18.294;2023-03-20T06:53:58;7.07;;;2.63;;
76310;SDS011;65120;59.304;18.294;2023-03-20T06:56:25;6.57;;;3.20;;
76310;SDS011;65120;59.304;18.294;2023-03-20T06:58:52;7.13;;;3.92;;
76310;SDS011;65120;59.304;18.294;2023-03-20T07:01:20;6.78;;;3.45;;
76310;SDS011;65120;59.304;18.294;2023-03-20T07:03:47;7.57;;;3.25;;
76310;SDS011;65120;59.304;18.294;2023-03-20T07:06:15;10.55;;;4.38;;
76310;SDS011;65120;59.304;18.294;2023-03-20T07:08:42;9.40;;;4.25;;
76310;SDS011;65120;59.304;18.294;2023-03-20T07:11:09;10.02;;;5.20;;
76310;SDS011;65120;59.304;18.294;2023-03-20T07:13:36;15.07;;;7.35;;
76310;SDS011;65120;59.304;18.294;2023-03-20T07:16:03;9.57;;;4.68;;
76310;SDS011;65120;59.304;18.294;2023-03-20T07:18:32;10.68;;;4.60;;
76310;SDS011;65120;59.304;18.294;2023-03-20T07:21:00;13.35;;;4.82;;
76310;SDS011;65120;59.304;18.294;2023-03-20T07:23:29;11.25;;;4.90;;
76310;SDS011;65120;59.304;18.294;2023-03-20T07:25:58;13.48;;;5.18;;
76310;SDS011;65120;59.304;18.294;2023-03-20T07:28:25;11.30;;;5.47;;
76310;SDS011;65120;59.304;18.294;2023-03-20T07:30:52;13.50;;;5.55;;
76310;SDS011;65120;59.304;18.294;2023-03-20T07:33:19;12.05;;;4.93;;
76310;SDS011;65120;59.304;18.294;2023-03-20T07:35:50;10.00;;;4.70;;
76310;SDS011;65120;59.304;18.294;2023-03-20T07:38:17;14.68;;;5.40;;
76310;SDS011;65120;59.304;18.294;2023-03-20T07:40:44;14.57;;;5.57;;
76310;SDS011;65120;59.304;18.294;2023-03-20T07:43:13;13.95;;;4.80;;
76310;SDS011;65120;59.304;18.294;2023-03-20T07:45:39;13.48;;;4.90;;
76310;SDS011;65120;59.304;18.294;2023-03-20T07:48:06;10.85;;;5.30;;
76310;SDS011;65120;59.304;18.294;2023-03-20T07:50:33;13.43;;;4.78;;
76310;SDS011;65120;59.304;18.294;2023-03-20T07:53:01;15.05;;;4.80;;
76310;SDS011;65120;59.304;18.294;2023-03-20T07:55:28;13.73;;;5.63;;
76310;SDS011;65120;59.304;18.294;2023-03-20T07:57:55;16.00;;;5.53;;
76310;SDS011;65120;59.304;18.294;2023-03-20T08:00:22;16.00;;;5.03;;
76310;SDS011;65120;59.304;18.294;2023-03-20T08:02:49;17.77;;;6.93;;
76310;SDS011;65120;59.304;18.294;2023-03-20T08:05:16;15.90;;;5.65;;
76310;SDS011;65120;59.304;18.294;2023-03-20T08:07:43;22.40;;;5.45;;
76310;SDS011;65120;59.304;18.294;2023-03-20T08:10:11;14.95;;;5.35;;
76310;SDS011;65120;59.304;18.294;2023-03-20T08:12:38;15.10;;;4.97;;
76310;SDS011;65120;59.304;18.294;2023-03-20T08:15:06;14.70;;;5.90;;
76310;SDS011;65120;59.304;18.294;2023-03-20T08:17:33;14.05;;;4.80;;
76310;SDS011;65120;59.304;18.294;2023-03-20T08:20:00;18.30;;;4.97;;
76310;SDS011;65120;59.304;18.294;2023-03-20T08:22:27;15.80;;;6.15;;
76310;SDS011;65120;59.304;18.294;2023-03-20T08:24:54;20.00;;;6.47;;
76310;SDS011;65120;59.304;18.294;2023-03-20T08:27:22;16.50;;;6.72;;
76310;SDS011;65120;59.304;18.294;2023-03-20T08:29:49;17.85;;;6.97;;
76310;SDS011;65120;59.304;18.294;2023-03-20T08:32:17;14.13;;;6.40;;
76310;SDS011;65120;59.304;18.294;2023-03-20T08:34:44;13.82;;;5.78;;
76310;SDS011;65120;59.304;18.294;2023-03-20T08:37:11;16.30;;;6.38;;
76310;SDS011;65120;59.304;18.294;2023-03-20T08:39:38;13.43;;;6.03;;
76310;SDS011;65120;59.304;18.294;2023-03-20T08:42:05;19.75;;;6.78;;
76310;SDS011;65120;59.304;18.294;2023-03-20T08:44:33;16.10;;;6.45;;
76310;SDS011;65120;59.304;18.294;2023-03-20T08:47:00;19.67;;;7.60;;
76310;SDS011;65120;59.304;18.294;2023-03-20T08:49:27;20.42;;;7.45;;
76310;SDS011;65120;59.304;18.294;2023-03-20T08:51:54;20.05;;;6.97;;
76310;SDS011;65120;59.304;18.294;2023-03-20T08:54:21;17.35;;;6.47;;
76310;SDS011;65120;59.304;18.294;2023-03-20T08:56:48;20.23;;;7.03;;
76310;SDS011;65120;59.304;18.294;2023-03-20T08:59:15;17.15;;;7.93;;
76310;SDS011;65120;59.304;18.294;2023-03-20T09:01:44;20.10;;;8.00;;
76310;SDS011;65120;59.304;18.294;2023-03-20T09:04:12;19.65;;;7.93;;
76310;SDS011;65120;59.304;18.294;2023-03-20T09:06:39;17.15;;;6.45;;
76310;SDS011;65120;59.304;18.294;2023-03-20T09:09:06;16.23;;;6.53;;
76310;SDS011;65120;59.304;18.294;2023-03-20T09:11:33;16.40;;;6.97;;
76310;SDS011;65120;59.304;18.294;2023-03-20T09:14:00;14.77;;;6.05;;
76310;SDS011;65120;59.304;18.294;2023-03-20T09:16:27;15.80;;;6.40;;
76310;SDS011;65120;59.304;18.294;2023-03-20T09:18:55;14.68;;;6.00;;
76310;SDS011;65120;59.304;18.294;2023-03-20T09:21:22;16.08;;;5.97;;
76310;SDS011;65120;59.304;18.294;2023-03-20T09:23:49;16.70;;;7.00;;
76310;SDS011;65120;59.304;18.294;2023-03-20T09:26:16;13.40;;;6.47;;
76310;SDS011;65120;59.304;18.294;2023-03-20T09:28:43;16.05;;;7.05;;
76310;SDS011;65120;59.304;18.294;2023-03-20T09:31:10;18.20;;;7.15;;
76310;SDS011;65120;59.304;18.294;2023-03-20T09:33:37;19.30;;;7.25;;
76310;SDS011;65120;59.304;18.294;2023-03-20T09:36:06;21.55;;;7.65;;
76310;SDS011;65120;59.304;18.294;2023-03-20T09:38:35;21.67;;;6.90;;
76310;SDS011;65120;59.304;18.294;2023-03-20T09:41:02;18.10;;;7.25;;
76310;SDS011;65120;59.304;18.294;2023-03-20T09:43:37;18.08;;;7.32;;
76310;SDS011;65120;59.304;18.294;2023-03-20T09:46:24;14.80;;;6.47;;
76310;SDS011;65120;59.304;18.294;2023-03-20T09:49:04;17.92;;;7.05;;
76310;SDS011;65120;59.304;18.294;2023-03-20T09:51:39;21.85;;;7.78;;
76310;SDS011;65120;59.304;18.294;2023-03-20T09:54:13;18.67;;;7.35;;
76310;SDS011;65120;59.304;18.294;2023-03-20T09:56:47;18.58;;;7.47;;
76310;SDS011;65120;59.304;18.294;2023-03-20T09:59:15;17.15;;;7.47;;
76310;SDS011;65120;59.304;18.294;2023-03-20T10:01:46;16.92;;;7.80;;
76310;SDS011;65120;59.304;18.294;2023-03-20T10:04:15;17.33;;;6.82;;
76310;SDS011;65120;59.304;18.294;2023-03-20T10:06:44;16.25;;;6.68;;
76310;SDS011;65120;59.304;18.294;2023-03-20T10:09:13;11.57;;;5.57;;
76310;SDS011;65120;59.304;18.294;2023-03-20T10:14:49;15.02;;;7.38;;
76310;SDS011;65120;59.304;18.294;2023-03-20T10:17:29;19.52;;;8.68;;
76310;SDS011;65120;59.304;18.294;2023-03-20T10:20:09;15.90;;;7.82;;
76310;SDS011;65120;59.304;18.294;2023-03-20T10:22:42;17.70;;;7.45;;
76310;SDS011;65120;59.304;18.294;2023-03-20T10:25:20;16.13;;;7.47;;
76310;SDS011;65120;59.304;18.294;2023-03-20T10:27:50;15.10;;;7.30;;
76310;SDS011;65120;59.304;18.294;2023-03-20T10:30:25;14.48;;;7.00;;
76310;SDS011;65120;59.304;18.294;2023-03-20T10:33:02;13.55;;;6.38;;
76310;SDS011;65120;59.304;18.294;2023-03-20T10:35:38;12.77;;;6.13;;
76310;SDS011;65120;59.304;18.294;2023-03-20T10:38:14;14.18;;;6.85;;
76310;SDS011;65120;59.304;18.294;2023-03-20T10:40:50;14.98;;;6.97;;
76310;SDS011;65120;59.304;18.294;2023-03-20T10:43:18;11.48;;;5.88;;
76310;SDS011;65120;59.304;18.294;2023-03-20T10:45:49;14.35;;;5.72;;
76310;SDS011;65120;59.304;18.294;2023-03-20T10:48:20;11.77;;;5.80;;
76310;SDS011;65120;59.304;18.294;2023-03-20T10:50:52;13.75;;;6.55;;
76310;SDS011;65120;59.304;18.294;2023-03-20T10:53:33;16.17;;;6.78;;
76310;SDS011;65120;59.304;18.294;2023-03-20T10:56:07;15.18;;;5.78;;
76310;SDS011;65120;59.304;18.294;2023-03-20T10:58:38;11.52;;;6.25;;
76310;SDS011;65120;59.304;18.294;2023-03-20T11:01:06;12.02;;;5.25;;
76310;SDS011;65120;59.304;18.294;2023-03-20T11:03:34;13.43;;;6.68;;
76310;SDS011;65120;59.304;18.294;2023-03-20T11:06:05;12.45;;;5.95;;
76310;SDS011;65120;59.304;18.294;2023-03-20T11:08:40;10.95;;;5.30;;
76310;SDS011;65120;59.304;18.294;2023-03-20T11:11:11;14.02;;;6.82;;
76310;SDS011;65120;59.304;18.294;2023-03-20T11:13:40;14.30;;;6.07;;
76310;SDS011;65120;59.304;18.294;2023-03-20T11:16:15;14.23;;;6.60;;
76310;SDS011;65120;59.304;18.294;2023-03-20T11:18:45;12.95;;;6.60;;
76310;SDS011;65120;59.304;18.294;2023-03-20T11:21:14;13.18;;;6.47;;
76310;SDS011;65120;59.304;18.294;2023-03-20T11:23:46;13.48;;;6.85;;
76310;SDS011;65120;59.304;18.294;2023-03-20T11:26:13;16.33;;;8.25;;
76310;SDS011;65120;59.304;18.294;2023-03-20T11:28:45;14.55;;;6.38;;
76310;SDS011;65120;59.304;18.294;2023-03-20T11:31:15;12.70;;;6.30;;
76310;SDS011;65120;59.304;18.294;2023-03-20T11:33:44;13.32;;;6.53;;
76310;SDS011;65120;59.304;18.294;2023-03-20T11:36:19;13.10;;;6.47;;
76310;SDS011;65120;59.304;18.294;2023-03-20T11:38:50;13.10;;;6.07;;
76310;SDS011;65120;59.304;18.294;2023-03-20T11:41:22;14.65;;;6.57;;
76310;SDS011;65120;59.304;18.294;2023-03-20T11:43:50;12.48;;;6.50;;
76310;SDS011;65120;59.304;18.294;2023-03-20T11:46:18;11.20;;;6.00;;
76310;SDS011;65120;59.304;18.294;2023-03-20T11:48:47;16.17;;;6.20;;
76310;SDS011;65120;59.304;18.294;2023-03-20T11:51:28;13.10;;;6.53;;
76310;SDS011;65120;59.304;18.294;2023-03-20T11:53:59;12.50;;;6.38;;
76310;SDS011;65120;59.304;18.294;2023-03-20T11:56:28;14.48;;;7.43;;
76310;SDS011;65120;59.304;18.294;2023-03-20T11:58:57;12.88;;;7.35;;
76310;SDS011;65120;59.304;18.294;2023-03-20T12:01:27;13.40;;;6.40;;
76310;SDS011;65120;59.304;18.294;2023-03-20T12:04:02;11.43;;;6.63;;
76310;SDS011;65120;59.304;18.294;2023-03-20T12:09:26;12.57;;;6.70;;
76310;SDS011;65120;59.304;18.294;2023-03-20T12:12:00;12.35;;;5.20;;
76310;SDS011;65120;59.304;18.294;2023-03-20T12:14:33;11.38;;;5.70;;
76310;SDS011;65120;59.304;18.294;2023-03-20T12:17:24;10.73;;;6.03;;
76310;SDS011;65120;59.304;18.294;2023-03-20T12:20:00;14.32;;;7.32;;
76310;SDS011;65120;59.304;18.294;2023-03-20T12:22:33;11.48;;;5.50;;
76310;SDS011;65120;59.304;18.294;2023-03-20T12:25:08;10.73;;;5.75;;
76310;SDS011;65120;59.304;18.294;2023-03-20T12:27:46;11.57;;;5.55;;
76310;SDS011;65120;59.304;18.294;2023-03-20T12:30:19;11.77;;;5.97;;
76310;SDS011;65120;59.304;18.294;2023-03-20T12:32:55;10.80;;;6.03;;
76310;SDS011;65120;59.304;18.294;2023-03-20T12:35:27;9.07;;;5.25;;
76310;SDS011;65120;59.304;18.294;2023-03-20T12:37:57;10.38;;;5.97;;
76310;SDS011;65120;59.304;18.294;2023-03-20T12:40:28;12.70;;;6.72;;
76310;SDS011;65120;59.304;18.294;2023-03-20T12:43:08;9.40;;;5.72;;
76310;SDS011;65120;59.304;18.294;2023-03-20T12:45:42;9.50;;;6.00;;
76310;SDS011;65120;59.304;18.294;2023-03-20T12:48:16;11.20;;;6.07;;
76310;SDS011;65120;59.304;18.294;2023-03-20T12:51:00;11.07;;;6.18;;
76310;SDS011;65120;59.304;18.294;2023-03-20T12:53:36;12.63;;;6.10;;
76310;SDS011;65120;59.304;18.294;2023-03-20T12:56:16;14.52;;;6.88;;
76310;SDS011;65120;59.304;18.294;2023-03-20T12:58:58;13.40;;;7.07;;
76310;SDS011;65120;59.304;18.294;2023-03-20T13:01:36;11.70;;;5.97;;
76310;SDS011;65120;59.304;18.294;2023-03-20T13:04:14;11.75;;;6.53;;
76310;SDS011;65120;59.304;18.294;2023-03-20T13:06:53;13.45;;;6.82;;
76310;SDS011;65120;59.304;18.294;2023-03-20T13:09:34;15.63;;;7.93;;
76310;SDS011;65120;59.304;18.294;2023-03-20T13:12:16;13.52;;;6.95;;
76310;SDS011;65120;59.304;18.294;2023-03-20T13:14:55;15.85;;;7.10;;
76310;SDS011;65120;59.304;18.294;2023-03-20T13:17:32;12.93;;;7.28;;
76310;SDS011;65120;59.304;18.294;2023-03-20T13:20:20;12.98;;;7.32;;
76310;SDS011;65120;59.304;18.294;2023-03-20T13:22:57;11.95;;;7.18;;
76310;SDS011;65120;59.304;18.294;2023-03-20T13:25:35;13.43;;;6.43;;
76310;SDS011;65120;59.304;18.294;2023-03-20T13:28:13;11.68;;;6.10;;
76310;SDS011;65120;59.304;18.294;2023-03-20T13:30:47;11.93;;;6.40;;
76310;SDS011;65120;59.304;18.294;2023-03-20T13:33:23;13.98;;;6.95;;
76310;SDS011;65120;59.304;18.294;2023-03-20T13:36:02;10.25;;;4.85;;
76310;SDS011;65120;59.304;18.294;2023-03-20T13:38:40;11.20;;;4.13;;
76310;SDS011;65120;59.304;18.294;2023-03-20T13:41:11;6.25;;;3.85;;
76310;SDS011;65120;59.304;18.294;2023-03-20T13:43:41;8.10;;;3.58;;
76310;SDS011;65120;59.304;18.294;2023-03-20T13:46:13;6.25;;;3.72;;
76310;SDS011;65120;59.304;18.294;2023-03-20T13:48:44;4.25;;;2.55;;
76310;SDS011;65120;59.304;18.294;2023-03-20T13:51:20;4.15;;;2.83;;
76310;SDS011;65120;59.304;18.294;2023-03-20T13:53:54;3.15;;;2.03;;
76310;SDS011;65120;59.304;18.294;2023-03-20T13:56:32;1.92;;;1.35;;
76310;SDS011;65120;59.304;18.294;2023-03-20T13:59:14;3.60;;;1.95;;
76310;SDS011;65120;59.304;18.294;2023-03-20T14:02:08;3.25;;;1.48;;
76310;SDS011;65120;59.304;18.294;2023-03-20T14:04:49;2.78;;;1.60;;
76310;SDS011;65120;59.304;18.294;2023-03-20T14:07:28;2.05;;;1.23;;
76310;SDS011;65120;59.304;18.294;2023-03-20T14:09:56;2.70;;;2.08;;
76310;SDS011;65120;59.304;18.294;2023-03-20T14:12:24;3.25;;;1.80;;
76310;SDS011;65120;59.304;18.294;2023-03-20T14:14:54;1.88;;;1.42;;
76310;SDS011;65120;59.304;18.294;2023-03-20T14:17:23;2.80;;;1.60;;
76310;SDS011;65120;59.304;18.294;2023-03-20T14:19:53;3.15;;;1.83;;
76310;SDS011;65120;59.304;18.294;2023-03-20T14:22:21;5.72;;;2.40;;
76310;SDS011;65120;59.304;18.294;2023-03-20T14:24:53;3.88;;;1.80;;
76310;SDS011;65120;59.304;18.294;2023-03-20T14:27:24;3.03;;;1.88;;
76310;SDS011;65120;59.304;18.294;2023-03-20T14:29:54;2.13;;;1.13;;
76310;SDS011;65120;59.304;18.294;2023-03-20T14:32:32;1.58;;;0.77;;
76310;SDS011;65120;59.304;18.294;2023-03-20T14:35:17;0.38;;;0.17;;
76310;SDS011;65120;59.304;18.294;2023-03-20T14:40:52;0.40;;;0.20;;
76310;SDS011;65120;59.304;18.294;2023-03-20T14:43:36;0.10;;;0.10;;
76310;SDS011;65120;59.304;18.294;2023-03-20T14:46:17;0.40;;;0.10;;
76310;SDS011;65120;59.304;18.294;2023-03-20T14:48:51;0.00;;;0.00;;
76310;SDS011;65120;59.304;18.294;2023-03-20T14:51:21;0.10;;;0.00;;
76310;SDS011;65120;59.304;18.294;2023-03-20T14:53:54;0.00;;;0.00;;
76310;SDS011;65120;59.304;18.294;2023-03-20T14:56:26;0.10;;;0.00;;
76310;SDS011;65120;59.304;18.294;2023-03-20T14:58:58;0.00;;;0.00;;
76310;SDS011;65120;59.304;18.294;2023-03-20T15:01:45;0.00;;;0.00;;
76310;SDS011;65120;59.304;18.294;2023-03-20T15:04:27;0.00;;;0.00;;
76310;SDS011;65120;59.304;18.294;2023-03-20T15:07:01;0.00;;;0.00;;